Pagrindinis puslapis
METAR-TAF:

METAR-TAF

Oro uostai :

Basra, Irakas

platuma: 30-32-56N, ilguma: 47-39-45E, Aukštis: 1 m

Dabartinis oras

Ataskaita buvo paskelbta 2 valandos ir 46 minutes, ne 03:00 UTC
Vėjas 7 kt iš Rytų/Pietryčių
Temperatūra 19°C
Drėgmė 68%
Slėgis 1014 hPa
Matomumas 10 km arba daugiau
nėra debesų žemiau 1500 m ir nėra kamuolinių lietaus debesų

METAR: ORMM 010300Z 12007KT CAVOK 19/13 Q1014 NOSIG

Laikas: 08:46 (05:46 UTC)

Prognozė

Ataskaita buvo paskelbta 19 valandos ir 46 minutes, ne 10:00 UTC
Prognozė galioja nuo 31 metu 12 UTC su 01 metu 12 UTC
Vėjas 4 kt iš Pietų/Pietryčių
Matomumas 10 km arba daugiau
nėra debesų žemiau 1500 m ir nėra kamuolinių lietaus debesų
Laikinai
nuo 01 metu 06 UTC su 01 metu 12 UTC
Vėjas 15 kt iš Pietryčių su gūsio iki 35 kt
Matomumas: 5000 m
Mažai debesys ne aukštis 3500 ft
Su prošvaistėmis ne aukštis 10000 ft
lietus

TAF: ORMM 311000Z 3112/0112 16004KT CAVOK TEMPO 0106/0112 14015G35KT 5000 RA FEW035 BKN100

Orai ataskaitas ir orų prognozės (METAR, TAF).

turimą stotys yra geltonos ir raudonos taškus žemėlapyje.

Perkelti pele per norėdami pamatyti stoties vardą.

Tada spustelėkite, norėdami matyti oro stebėjimo ir prognozės.

Norėdami pakeisti žemėlapį: spustelėkite ant žalios mygtukų su juodo kryžiaus žemyn,; žalią mygtuką su brūkšneliu, jei norite nutolinti; arba žalių rodyklių gretimoms žemėlapius.


METAR-TAF: